Time;durP1;ratioP1;P1;durP2;ratioP2;P2;SDS_P1;SDS_P2;PMS_P1;PMS_P2;Temp;Humidity;BMP_temperature;BMP_pressure;BME280_temperature;BME280_humidity;BME280_pressure;Samples;Min_cycle;Max_cycle;Signal;HPM_P1;HPM_P2
2022/06/24 07:59:10;;;;;;;39.13;35.38;;;;;;;19.83;98.77;100535.94;5279300;28;20390;-70
2022/06/24 08:01:42;;;;;;;40.38;36.55;;;;;;;19.93;99.95;100536.22;5276181;28;20495;-70
2022/06/24 08:04:14;;;;;;;39.63;35.92;;;;;;;19.91;99.52;100532.97;5259052;28;20036;-70
2022/06/24 08:06:46;;;;;;;36.58;33.08;;;;;;;20.09;98.85;100541.88;5258133;28;20021;-70
2022/06/24 08:09:17;;;;;;;35.30;31.83;;;;;;;20.04;98.42;100541.34;5259247;28;20530;-70
2022/06/24 08:11:50;;;;;;;35.92;32.53;;;;;;;20.05;98.31;100540.16;5251481;28;20032;-70
2022/06/24 08:14:22;;;;;;;33.28;30.27;;;;;;;20.07;97.93;100540.59;5266187;28;20495;-70
2022/06/24 08:16:53;;;;;;;36.08;32.80;;;;;;;20.13;99.33;100542.00;5276275;28;20024;-71
2022/06/24 08:19:24;;;;;;;29.73;27.08;;;;;;;20.27;97.76;100538.72;5238552;28;20028;-70
2022/06/24 08:21:56;;;;;;;31.92;29.10;;;;;;;20.26;97.47;100532.28;5256638;28;20031;-70
2022/06/24 08:24:27;;;;;;;30.63;27.83;;;;;;;20.31;98.23;100529.19;5259044;28;20029;-71
2022/06/24 08:26:58;;;;;;;23.80;21.60;;;;;;;20.05;96.93;100520.47;5255100;28;20026;-71
2022/06/24 08:29:30;;;;;;;21.10;19.33;;;;;;;20.03;96.44;100532.06;5237274;28;20388;-71
2022/06/24 08:32:01;;;;;;;20.17;18.42;;;;;;;20.25;97.07;100522.19;5238294;28;20014;-71
2022/06/24 08:34:32;;;;;;;22.13;20.23;;;;;;;20.38;96.84;100517.28;5237330;28;20029;-72
2022/06/24 08:37:04;;;;;;;22.60;20.42;;;;;;;20.52;96.73;100519.63;5241533;28;20064;-69
2022/06/24 08:39:35;;;;;;;23.08;21.08;;;;;;;20.69;97.22;100516.47;5258726;28;20370;-71
2022/06/24 08:42:11;;;;;;;23.05;21.05;;;;;;;20.73;95.34;100522.97;5257382;28;20013;-72
2022/06/24 08:44:42;;;;;;;26.52;24.33;;;;;;;20.62;93.77;100527.56;5249140;28;20631;-71
2022/06/24 08:47:14;;;;;;;22.83;20.85;;;;;;;20.85;93.96;100524.88;5237408;28;20026;-70
2022/06/24 08:49:46;;;;;;;24.25;21.95;;;;;;;20.83;94.56;100528.06;5237119;28;20568;-70
2022/06/24 08:52:19;;;;;;;27.60;25.33;;;;;;;20.52;93.45;100525.25;5257322;28;20025;-71
2022/06/24 08:54:51;;;;;;;26.13;23.90;;;;;;;20.72;93.24;100524.19;5258146;28;20100;-71
2022/06/24 08:57:23;;;;;;;27.50;25.10;;;;;;;20.88;94.43;100523.31;5257304;28;20472;-70
2022/06/24 08:59:54;;;;;;;30.17;27.58;;;;;;;20.96;93.68;100525.13;5258434;28;20017;-72
2022/06/24 09:02:25;;;;;;;30.70;28.17;;;;;;;21.01;93.15;100519.19;5241998;28;20025;-71
2022/06/24 09:04:59;;;;;;;31.42;28.67;;;;;;;20.89;90.57;100514.50;5237296;28;20059;-70
2022/06/24 09:07:30;;;;;;;25.63;23.50;;;;;;;20.67;89.33;100523.66;5242839;28;20428;-71
2022/06/24 09:10:06;;;;;;;24.92;22.77;;;;;;;20.74;89.61;100524.63;5225644;28;20030;-71
2022/06/24 09:12:45;;;;;;;21.65;19.73;;;;;;;20.97;88.09;100521.13;5240654;28;20469;-73
2022/06/24 09:15:16;;;;;;;20.77;18.90;;;;;;;20.95;87.89;100517.84;5239563;28;20370;-73
2022/06/24 09:17:48;;;;;;;19.25;17.65;;;;;;;21.06;86.67;100519.75;5239502;28;20029;-71
2022/06/24 09:20:22;;;;;;;19.95;18.23;;;;;;;21.05;86.90;100514.47;5236302;28;20036;-75
2022/06/24 09:23:03;;;;;;;17.65;16.13;;;;;;;21.06;85.74;100521.72;5226056;28;20035;-75
2022/06/24 09:25:42;;;;;;;15.80;14.52;;;;;;;21.17;85.90;100519.97;5241493;28;20109;-74
2022/06/24 09:28:39;;;;;;;18.25;16.73;;;;;;;21.32;87.41;100515.47;5242918;28;20025;-74
2022/06/24 09:31:11;;;;;;;16.38;15.02;;;;;;;21.25;85.89;100513.28;5225220;28;20038;-73
2022/06/24 09:33:44;;;;;;;19.02;17.42;;;;;;;21.00;87.59;100520.38;5239401;28;20025;-73
2022/06/24 09:36:16;;;;;;;19.23;17.52;;;;;;;21.35;88.46;100513.91;5229532;28;20017;-73
2022/06/24 09:39:03;;;;;;;17.15;15.43;;;;;;;21.51;86.78;100511.84;5231032;28;20044;-73
2022/06/24 09:41:49;;;;;;;15.95;14.55;;;;;;;21.52;86.51;100518.28;5256623;28;20034;-75
2022/06/24 09:44:22;;;;;;;15.10;13.80;;;;;;;21.54;85.16;100508.25;5258284;28;20021;-73
2022/06/24 09:47:04;;;;;;;12.45;11.48;;;;;;;21.83;83.86;100506.00;5243357;28;20103;-74
2022/06/24 09:49:35;;;;;;;12.35;11.35;;;;;;;21.97;81.92;100505.44;5243569;28;20468;-73
2022/06/24 09:52:08;;;;;;;12.05;10.90;;;;;;;21.99;81.05;100506.72;5234266;28;20041;-75
2022/06/24 09:54:41;;;;;;;11.45;10.45;;;;;;;21.85;81.21;100500.78;5222831;28;20164;-75
2022/06/24 09:57:14;;;;;;;9.45;8.65;;;;;;;21.88;79.06;100500.88;5252195;28;20056;-76
2022/06/24 10:02:37;;;;;;;10.60;9.65;;;;;;;21.61;80.45;100508.41;5243053;28;20029;-74
2022/06/24 10:05:09;;;;;;;11.02;10.00;;;;;;;21.79;81.04;100513.59;5242374;28;20152;-74
2022/06/24 10:07:45;;;;;;;10.50;9.57;;;;;;;21.88;81.64;100516.97;5241898;28;20105;-74
2022/06/24 10:10:17;;;;;;;9.13;8.32;;;;;;;21.67;78.97;100521.00;5242153;28;20079;-74
2022/06/24 10:12:53;;;;;;;10.15;9.23;;;;;;;21.92;80.15;100509.41;5245074;28;20035;-73
2022/06/24 10:15:24;;;;;;;9.90;9.00;;;;;;;22.02;77.79;100503.13;5239971;28;20030;-74
2022/06/24 10:17:57;;;;;;;10.98;9.88;;;;;;;22.13;77.02;100506.94;5251256;28;20461;-73
2022/06/24 10:20:30;;;;;;;12.07;11.07;;;;;;;22.21;77.64;100510.75;5245778;28;20100;-74
2022/06/24 10:23:01;;;;;;;11.07;10.07;;;;;;;22.00;77.49;100538.56;5241309;28;20029;-71
2022/06/24 10:25:47;;;;;;;6.53;5.25;;;;;;;21.75;75.47;100563.50;5237976;28;20057;-73
2022/06/24 10:28:19;;;;;;;2.05;1.85;;;;;;;21.11;73.55;100562.91;5220928;28;20041;-72
2022/06/24 10:30:56;;;;;;;3.92;2.03;;;;;;;20.57;77.41;100570.09;5222101;28;20034;-70
2022/06/24 10:33:29;;;;;;;3.13;1.80;;;;;;;20.32;80.29;100570.22;5229582;28;20057;-72
2022/06/24 10:36:05;;;;;;;3.55;2.35;;;;;;;19.94;82.99;100565.19;5230494;28;20029;-71
2022/06/24 10:38:38;;;;;;;3.60;2.47;;;;;;;20.11;85.95;100558.41;5242189;28;20076;-72
2022/06/24 10:41:11;;;;;;;6.43;4.03;;;;;;;20.09;85.57;100560.78;5241131;28;20769;-72
2022/06/24 10:43:44;;;;;;;4.82;2.67;;;;;;;20.20;86.61;100562.69;5232646;28;20112;-71
2022/06/24 10:46:17;;;;;;;3.47;3.13;;;;;;;20.07;86.44;100560.31;5235480;28;20384;-73
2022/06/24 10:48:51;;;;;;;3.97;3.42;;;;;;;20.28;88.23;100569.34;5241557;28;20030;-72
2022/06/24 10:51:22;;;;;;;4.05;3.75;;;;;;;20.41;87.53;100582.16;5242027;28;20029;-71
2022/06/24 10:54:03;;;;;;;4.15;3.75;;;;;;;20.37;87.27;100569.97;5232138;28;20402;-72
2022/06/24 10:56:50;;;;;;;5.20;4.13;;;;;;;20.34;89.33;100565.06;5228102;28;20026;-72
2022/06/24 10:59:21;;;;;;;4.97;4.47;;;;;;;20.43;89.12;100559.25;5241834;28;20435;-72
2022/06/24 11:01:53;;;;;;;5.07;4.55;;;;;;;20.23;89.71;100551.91;5239614;28;20033;-72
2022/06/24 11:04:29;;;;;;;5.50;4.07;;;;;;;20.28;88.83;100552.44;5240674;28;20152;-72
2022/06/24 11:07:08;;;;;;;3.70;3.00;;;;;;;20.41;86.21;100551.16;5237735;28;20385;-73
2022/06/24 11:09:40;;;;;;;3.95;2.92;;;;;;;20.37;85.48;100547.44;5240867;28;20026;-71
2022/06/24 11:12:31;;;;;;;3.22;2.92;;;;;;;20.53;86.03;100549.41;5239813;28;20028;-75
2022/06/24 11:15:02;;;;;;;3.45;2.92;;;;;;;20.50;87.22;100541.72;5240636;28;20035;-72
2022/06/24 11:17:41;;;;;;;5.15;3.65;;;;;;;20.62;86.48;100541.63;5239314;28;20105;-72
2022/06/24 11:20:13;;;;;;;2.85;2.10;;;;;;;20.59;84.33;100533.94;5223437;28;20052;-72
2022/06/24 11:22:46;;;;;;;2.30;2.10;;;;;;;20.73;83.92;100534.25;5239184;28;20025;-73
2022/06/24 11:25:18;;;;;;;2.30;1.88;;;;;;;20.95;85.32;100529.13;5238992;28;20029;-73
2022/06/24 11:27:50;;;;;;;1.70;1.60;;;;;;;20.90;83.95;100513.31;5241363;28;20465;-78
2022/06/24 11:30:21;;;;;;;1.83;1.60;;;;;;;21.08;83.05;100516.53;5242428;28;20041;-77
2022/06/24 11:33:01;;;;;;;2.33;2.03;;;;;;;21.09;84.23;100512.53;5242642;28;20030;-80
2022/06/24 11:35:33;;;;;;;1.30;1.20;;;;;;;21.10;80.07;100519.81;5228136;28;20021;-80
2022/06/24 11:38:06;;;;;;;1.33;1.23;;;;;;;20.97;78.83;100519.13;5219794;28;20065;-72
2022/06/24 11:40:39;;;;;;;1.48;1.17;;;;;;;21.13;80.20;100519.06;5220733;28;20061;-72
2022/06/24 11:43:12;;;;;;;2.28;1.80;;;;;;;21.14;80.54;100515.06;5229030;28;20499;-72
2022/06/24 11:45:46;;;;;;;1.70;1.20;;;;;;;21.16;78.63;100518.31;5240283;28;20531;-73
2022/06/24 11:48:24;;;;;;;1.52;1.40;;;;;;;21.16;79.15;100520.31;5240964;28;20014;-72
2022/06/24 11:50:56;;;;;;;1.67;1.58;;;;;;;21.00;80.08;100514.75;5240228;28;20481;-72
2022/06/24 11:53:27;;;;;;;1.55;1.45;;;;;;;21.10;77.14;100521.81;5227695;28;20033;-74
2022/06/24 11:55:58;;;;;;;3.55;1.90;;;;;;;21.14;79.41;100523.53;5261703;28;20037;-74
2022/06/24 11:58:35;;;;;;;4.45;2.78;;;;;;;21.13;81.54;100516.25;5260627;28;20485;-72
2022/06/24 12:01:07;;;;;;;6.47;5.88;;;;;;;21.25;83.16;100510.47;5233606;28;20036;-72
2022/06/24 12:03:38;;;;;;;2.42;2.20;;;;;;;21.26;80.98;100514.91;5226295;28;20030;-74
2022/06/24 12:06:10;;;;;;;4.72;3.33;;;;;;;21.37;79.86;100503.03;5222835;28;20037;-72
2022/06/24 12:08:42;;;;;;;3.17;2.33;;;;;;;21.35;80.36;100509.06;5224555;28;20040;-77
2022/06/24 12:11:15;;;;;;;2.30;2.10;;;;;;;21.74;79.04;100500.59;5229026;28;20026;-77
2022/06/24 12:13:57;;;;;;;2.78;2.00;;;;;;;21.86;78.11;100506.06;5240342;28;20042;-75
2022/06/24 12:17:02;;;;;;;2.33;2.10;;;;;;;22.10;75.07;100506.91;5244028;28;20491;-76
2022/06/24 12:19:39;;;;;;;2.13;1.88;;;;;;;22.13;73.06;100511.78;5244185;28;20033;-74
2022/06/24 12:22:14;;;;;;;1.80;1.60;;;;;;;21.74;73.35;100508.25;5241265;28;20021;-76
2022/06/24 12:24:45;;;;;;;2.90;1.38;;;;;;;22.04;74.46;100505.59;5238711;28;20029;-75
2022/06/24 12:27:16;;;;;;;2.40;1.40;;;;;;;22.14;72.51;100508.59;5219619;28;20030;-76
2022/06/24 12:29:48;;;;;;;16.58;14.95;;;;;;;22.00;71.75;100505.50;5261373;28;20524;-76
2022/06/24 12:32:19;;;;;;;2.53;2.03;;;;;;;22.22;71.67;100500.28;5261499;28;20025;-79
2022/06/24 12:34:55;;;;;;;4.25;2.08;;;;;;;22.22;70.00;100503.09;5224370;28;20109;-76
2022/06/24 12:37:26;;;;;;;2.05;1.50;;;;;;;22.46;70.05;100504.69;5235357;28;20038;-79
2022/06/24 12:39:58;;;;;;;2.38;2.10;;;;;;;22.58;69.56;100505.31;5220323;28;20068;-79
2022/06/24 12:42:29;;;;;;;2.78;1.98;;;;;;;22.81;70.00;100509.28;5232164;28;20113;-77
2022/06/24 12:45:03;;;;;;;1.90;1.52;;;;;;;22.81;67.36;100503.63;5222436;28;20029;-78
2022/06/24 12:50:36;;;;;;;2.67;1.80;;;;;;;23.04;68.40;100501.56;5244888;28;20033;-75
2022/06/24 12:53:08;;;;;;;1.73;1.55;;;;;;;23.17;66.31;100510.63;5235509;28;20025;-81
2022/06/24 12:55:39;;;;;;;2.33;2.10;;;;;;;23.20;66.91;100516.31;5259331;28;20101;-81
2022/06/24 12:58:10;;;;;;;2.00;1.90;;;;;;;23.30;67.35;100514.84;5225365;28;20089;-77
2022/06/24 13:00:42;;;;;;;3.58;2.08;;;;;;;23.27;67.09;100515.63;5224118;28;20048;-80
2022/06/24 13:03:18;;;;;;;2.03;1.83;;;;;;;23.20;66.98;100515.50;5223304;28;20371;-79
2022/06/24 13:05:49;;;;;;;2.10;2.00;;;;;;;23.06;66.38;100507.66;5232286;28;20508;-77
2022/06/24 13:08:22;;;;;;;2.63;2.00;;;;;;;23.04;66.56;100506.41;5265804;28;20049;-80
2022/06/24 13:10:54;;;;;;;3.42;2.63;;;;;;;23.14;67.37;100511.41;5238653;28;20025;-81
2022/06/24 13:13:27;;;;;;;2.08;1.95;;;;;;;23.12;66.39;100510.97;5244124;28;20021;-77
2022/06/24 13:15:58;;;;;;;2.72;1.88;;;;;;;23.23;67.33;100515.53;5227492;28;20026;-77
2022/06/24 13:18:29;;;;;;;2.85;2.00;;;;;;;23.23;67.25;100512.72;5234508;28;20036;-78
2022/06/24 13:21:01;;;;;;;3.88;3.40;;;;;;;23.04;67.25;100514.91;5264847;28;20029;-78
2022/06/24 13:23:34;;;;;;;3.78;2.28;;;;;;;23.05;68.66;100516.50;5249431;28;20068;-78
2022/06/24 13:26:05;;;;;;;3.88;3.45;;;;;;;23.19;68.16;100516.72;5241378;28;20028;-79
2022/06/24 13:28:37;;;;;;;4.75;3.78;;;;;;;23.10;68.14;100508.50;5242414;28;20435;-79
2022/06/24 13:31:08;;;;;;;3.67;2.38;;;;;;;23.05;68.65;100508.84;5233626;28;20084;-78
2022/06/24 13:33:41;;;;;;;3.00;2.00;;;;;;;23.13;68.37;100509.75;5243780;28;20372;-79
2022/06/24 13:36:13;;;;;;;2.30;1.90;;;;;;;23.31;67.84;100507.16;5265505;28;20448;-78
2022/06/24 13:38:44;;;;;;;3.67;2.33;;;;;;;23.40;66.79;100497.19;5249470;28;20071;-78
2022/06/24 13:41:15;;;;;;;2.40;2.20;;;;;;;23.47;65.81;100501.28;5243440;28;20025;-78
2022/06/24 13:43:47;;;;;;;2.30;2.10;;;;;;;23.35;65.51;100508.03;5242484;28;20051;-77
2022/06/24 13:46:18;;;;;;;2.67;2.05;;;;;;;23.27;65.24;100507.13;5242881;28;20120;-72
2022/06/24 13:48:50;;;;;;;2.10;1.90;;;;;;;23.29;65.59;100501.91;5228145;28;20076;-73
2022/06/24 13:51:21;;;;;;;1.38;1.27;;;;;;;23.26;64.14;100496.19;5227256;28;20025;-73
2022/06/24 13:53:52;;;;;;;8.73;7.82;;;;;;;23.43;62.97;100495.59;5222876;28;20030;-74
2022/06/24 13:56:24;;;;;;;1.90;1.38;;;;;;;23.53;63.64;100491.25;5222597;28;20034;-75
2022/06/24 13:58:55;;;;;;;1.80;1.70;;;;;;;23.58;62.59;100485.25;5224287;28;20467;-75
2022/06/24 14:01:30;;;;;;;2.08;1.70;;;;;;;23.90;61.85;100490.47;5246800;28;20047;-74
2022/06/24 14:04:04;;;;;;;3.30;2.90;;;;;;;24.11;61.26;100476.53;5231312;28;20021;-75
2022/06/24 14:06:37;;;;;;;3.03;2.70;;;;;;;24.24;60.88;100477.84;5221550;28;20644;-73
2022/06/24 14:09:08;;;;;;;4.43;1.60;;;;;;;24.17;57.94;100483.44;5222402;28;20092;-73
2022/06/24 14:11:39;;;;;;;2.45;1.30;;;;;;;24.26;57.43;100486.78;5232305;28;20025;-75
2022/06/24 14:14:12;;;;;;;3.85;3.40;;;;;;;24.17;58.29;100476.97;5231378;28;20425;-75
2022/06/24 14:16:44;;;;;;;1.42;1.10;;;;;;;24.54;58.87;100481.75;5228213;28;20033;-70
2022/06/24 14:19:15;;;;;;;3.15;1.58;;;;;;;24.57;58.79;100473.28;5232866;28;20389;-71
2022/06/24 14:21:46;;;;;;;1.00;0.90;;;;;;;24.36;58.01;100478.75;5221980;28;20108;-71
2022/06/24 14:24:33;;;;;;;1.48;1.10;;;;;;;24.35;58.68;100480.75;5222620;28;20030;-71
2022/06/24 14:27:07;;;;;;;1.38;1.20;;;;;;;24.45;57.75;100473.59;5241520;28;20033;-70
2022/06/24 14:29:39;;;;;;;2.00;1.20;;;;;;;24.57;58.28;100478.09;5232092;28;20022;-70
2022/06/24 14:32:10;;;;;;;1.23;1.13;;;;;;;24.61;57.52;100479.75;5263048;28;20534;-70
2022/06/24 14:34:41;;;;;;;1.23;1.10;;;;;;;24.62;56.30;100492.75;5252018;28;20034;-71
2022/06/24 14:40:12;;;;;;;2.55;1.20;;;;;;;24.57;55.17;100504.47;5242019;28;20064;-72
2022/06/24 14:42:44;;;;;;;2.10;1.50;;;;;;;24.48;56.02;100503.97;5241562;28;20821;-72
2022/06/24 14:45:15;;;;;;;1.30;1.20;;;;;;;24.52;56.23;100507.66;5241249;28;20033;-71
2022/06/24 14:47:46;;;;;;;2.40;1.63;;;;;;;24.43;56.30;100507.13;5225789;28;20044;-71
2022/06/24 14:50:18;;;;;;;1.75;1.52;;;;;;;24.44;57.16;100503.91;5228261;28;20025;-70
2022/06/24 14:52:49;;;;;;;2.40;1.23;;;;;;;24.49;57.09;100505.59;5240536;28;20048;-68
2022/06/24 14:55:22;;;;;;;1.80;1.23;;;;;;;24.57;56.58;100500.78;5241084;28;20028;-68
2022/06/24 14:57:55;;;;;;;4.47;1.63;;;;;;;24.74;56.20;100500.91;5236895;28;20053;-68
2022/06/24 15:00:28;;;;;;;2.58;1.67;;;;;;;24.98;55.40;100487.31;5219762;28;20076;-67
2022/06/24 15:02:59;;;;;;;24.15;21.80;;;;;;;25.42;55.80;100471.31;5219500;28;20384;-68
2022/06/24 15:05:30;;;;;;;6.05;5.00;;;;;;;25.19;54.23;100469.59;5234840;28;20125;-68
2022/06/24 15:08:02;;;;;;;1.80;1.65;;;;;;;25.42;53.30;100460.75;5240741;28;20033;-68
2022/06/24 15:10:34;;;;;;;1.83;1.40;;;;;;;25.54;55.17;100451.03;5241273;28;20431;-67
2022/06/24 15:13:05;;;;;;;3.58;3.08;;;;;;;25.55;53.76;100449.84;5241506;28;20021;-68
2022/06/24 15:15:37;;;;;;;1.63;1.25;;;;;;;25.32;53.59;100445.31;5231756;28;20045;-68
2022/06/24 15:18:08;;;;;;;1.52;1.42;;;;;;;25.31;52.94;100445.69;5220846;28;20092;-68
2022/06/24 15:20:41;;;;;;;2.05;1.50;;;;;;;25.29;53.05;100445.31;5220803;28;20105;-67
2022/06/24 15:23:12;;;;;;;1.25;1.15;;;;;;;25.41;52.60;100444.94;5229969;28;20014;-68
2022/06/24 15:25:44;;;;;;;2.35;1.40;;;;;;;25.45;52.96;100447.78;5241144;28;20100;-68
2022/06/24 15:28:15;;;;;;;2.40;1.20;;;;;;;25.41;52.18;100447.75;5240880;28;20014;-68
2022/06/24 15:30:46;;;;;;;1.65;1.00;;;;;;;25.42;53.61;100446.56;5240841;28;20033;-68
2022/06/24 15:33:18;;;;;;;1.85;0.90;;;;;;;25.15;54.42;100446.84;5227253;28;20405;-70
2022/06/24 15:35:49;;;;;;;1.98;1.48;;;;;;;25.16;53.36;100440.00;5220534;28;20029;-69
2022/06/24 15:38:20;;;;;;;1.70;0.90;;;;;;;24.90;53.53;100428.88;5231057;28;20053;-70
2022/06/24 15:40:52;;;;;;;1.98;1.08;;;;;;;25.28;54.33;100424.63;5241426;28;20349;-68
2022/06/24 15:43:23;;;;;;;1.38;1.20;;;;;;;25.44;53.37;100427.13;5240147;28;20035;-68
2022/06/24 15:45:54;;;;;;;1.60;1.10;;;;;;;25.48;52.79;100422.25;5241200;28;20465;-68
2022/06/24 15:48:26;;;;;;;2.65;1.20;;;;;;;25.35;53.21;100415.31;5241336;28;20032;-67
2022/06/24 15:50:57;;;;;;;1.63;1.20;;;;;;;25.43;53.59;100411.28;5227377;28;20033;-68
2022/06/24 15:53:28;;;;;;;2.10;1.60;;;;;;;25.55;52.88;100418.63;5220211;28;20385;-68
2022/06/24 15:55:59;;;;;;;4.40;1.90;;;;;;;25.63;52.43;100410.94;5220809;28;20052;-67
2022/06/24 15:58:32;;;;;;;1.23;1.10;;;;;;;25.70;51.78;100420.28;5219420;28;20050;-68
2022/06/24 16:01:03;;;;;;;1.92;1.20;;;;;;;25.63;51.42;100427.97;5240681;28;20037;-69
2022/06/24 16:03:34;;;;;;;1.58;1.10;;;;;;;25.52;52.01;100425.09;5241325;28;20423;-66
2022/06/24 16:06:06;;;;;;;1.30;1.10;;;;;;;25.22;50.13;100429.06;5235842;28;20116;-68
2022/06/24 16:08:38;;;;;;;2.30;2.10;;;;;;;25.20;52.26;100427.84;5220636;28;20427;-67
2022/06/24 16:11:09;;;;;;;1.67;1.17;;;;;;;24.94;52.13;100429.72;5226174;28;20037;-68
2022/06/24 16:13:41;;;;;;;2.20;1.15;;;;;;;24.82;52.33;100435.75;5240069;28;20029;-68
2022/06/24 16:16:12;;;;;;;2.03;1.40;;;;;;;24.67;53.18;100444.19;5240659;28;20040;-68
2022/06/24 16:18:43;;;;;;;2.78;1.20;;;;;;;24.78;53.25;100443.44;5240248;28;20162;-68
2022/06/24 16:21:15;;;;;;;1.80;1.42;;;;;;;24.75;53.51;100442.19;5244977;28;20025;-68
2022/06/24 16:23:46;;;;;;;1.67;1.30;;;;;;;24.74;53.72;100447.03;5234893;28;20026;-67
2022/06/24 16:29:07;;;;;;;4.75;4.05;;;;;;;24.56;53.98;100448.16;5241513;28;20469;-68
2022/06/24 16:31:39;;;;;;;3.97;1.70;;;;;;;24.58;53.49;100455.03;5245319;28;20033;-67
2022/06/24 16:34:10;;;;;;;1.85;1.30;;;;;;;24.53;52.88;100449.75;5243963;28;20013;-68
2022/06/24 16:36:41;;;;;;;1.13;0.90;;;;;;;24.57;54.69;100464.78;5244753;28;20017;-69
2022/06/24 16:39:13;;;;;;;3.08;2.72;;;;;;;24.53;54.23;100461.09;5243168;28;20053;-69
2022/06/24 16:41:44;;;;;;;2.80;2.20;;;;;;;24.44;54.32;100458.56;5226038;28;20029;-68
2022/06/24 16:44:16;;;;;;;4.03;1.50;;;;;;;24.45;54.59;100460.22;5235120;28;20465;-69
2022/06/24 16:46:47;;;;;;;1.65;1.30;;;;;;;24.38;54.91;100470.66;5244117;28;20480;-69
2022/06/24 16:49:19;;;;;;;1.58;1.23;;;;;;;24.28;55.47;100472.19;5237595;28;20034;-67
2022/06/24 16:51:51;;;;;;;1.73;1.40;;;;;;;24.34;55.92;100473.47;5242472;28;20029;-69
2022/06/24 16:54:22;;;;;;;1.75;1.35;;;;;;;24.15;56.23;100479.38;5243601;28;20025;-67
2022/06/24 16:56:53;;;;;;;2.17;1.13;;;;;;;24.12;56.94;100483.81;5243194;28;20442;-70
2022/06/24 16:59:25;;;;;;;1.88;1.17;;;;;;;24.13;56.56;100482.59;5223525;28;20121;-68
2022/06/24 17:01:56;;;;;;;1.48;1.30;;;;;;;24.14;56.66;100484.25;5222966;28;20076;-69
2022/06/24 17:04:28;;;;;;;1.25;1.13;;;;;;;24.09;56.93;100474.06;5223600;28;20036;-68
2022/06/24 17:07:00;;;;;;;1.80;1.70;;;;;;;24.01;57.48;100468.75;5242927;28;20487;-68
2022/06/24 17:09:31;;;;;;;3.92;1.85;;;;;;;24.04;57.67;100473.63;5243412;28;20029;-70
2022/06/24 17:12:03;;;;;;;3.70;1.88;;;;;;;23.86;57.90;100470.63;5243871;28;20029;-68
2022/06/24 17:14:34;;;;;;;2.63;1.50;;;;;;;23.89;58.05;100474.69;5235941;28;20519;-67
2022/06/24 17:17:06;;;;;;;3.03;1.90;;;;;;;23.84;58.21;100473.03;5241735;28;20021;-68
2022/06/24 17:19:37;;;;;;;3.92;2.13;;;;;;;23.82;58.84;100484.72;5244111;28;20029;-69
2022/06/24 17:22:08;;;;;;;4.32;2.10;;;;;;;23.70;59.53;100479.34;5243130;28;20025;-67
2022/06/24 17:24:39;;;;;;;2.10;1.33;;;;;;;23.54;59.80;100478.72;5243695;28;20045;-68
2022/06/24 17:27:11;;;;;;;5.40;2.03;;;;;;;23.50;60.27;100480.72;5244085;28;20075;-69
2022/06/24 17:29:42;;;;;;;1.92;1.55;;;;;;;23.36;61.10;100482.16;5242812;28;20032;-68
